createdAt,value
2019-04-01T00:00:08.806Z,1023.06
2019-04-01T00:01:07.820Z,1023.01
2019-04-01T00:02:07.672Z,1022.99
2019-04-01T00:03:07.709Z,1023.03
2019-04-01T00:04:07.627Z,1023.02
2019-04-01T00:05:08.208Z,1023.02
2019-04-01T00:06:07.588Z,1023.03
2019-04-01T00:07:07.755Z,1023.08
2019-04-01T00:08:07.566Z,1023.07
2019-04-01T00:09:08.043Z,1023.08
2019-04-01T00:10:07.975Z,1023.11
2019-04-01T00:11:08.283Z,1023.09
2019-04-01T00:12:07.555Z,1023.13
2019-04-01T00:13:09.696Z,1023.12
2019-04-01T00:14:07.877Z,1023.14
2019-04-01T00:15:07.995Z,1023.15
2019-04-01T00:16:07.876Z,1023.15
2019-04-01T00:17:09.404Z,1023.19
2019-04-01T00:18:07.980Z,1023.13
2019-04-01T00:19:07.811Z,1023.15
2019-04-01T00:20:07.693Z,1023.14
2019-04-01T00:21:07.639Z,1023.15
2019-04-01T00:22:07.555Z,1023.16
2019-04-01T00:23:08.832Z,1023.16
2019-04-01T00:24:07.678Z,1023.16
2019-04-01T00:25:07.616Z,1023.12
2019-04-01T00:26:07.553Z,1023.14
2019-04-01T00:27:08.590Z,1023.11
2019-04-01T00:28:08.834Z,1023.14
2019-04-01T00:29:07.490Z,1023.06
2019-04-01T00:30:07.539Z,1023.10
2019-04-01T00:31:06.670Z,1023.09
2019-04-01T00:32:06.632Z,1023.05
2019-04-01T00:33:08.348Z,1023.08
2019-04-01T00:34:06.705Z,1023.09
2019-04-01T00:35:06.831Z,1023.08
2019-04-01T00:36:06.660Z,1023.09
2019-04-01T00:37:06.876Z,1023.08
2019-04-01T00:38:06.754Z,1023.07
2019-04-01T00:39:09.204Z,1023.05
2019-04-01T00:40:06.699Z,1023.10
2019-04-01T00:41:06.955Z,1023.08
2019-04-01T00:42:06.721Z,1023.10
2019-04-01T00:43:06.770Z,1023.11
2019-04-01T00:44:07.830Z,1023.07
2019-04-01T00:45:09.110Z,1023.08
2019-04-01T00:46:06.605Z,1023.10
2019-04-01T00:47:06.795Z,1023.08
2019-04-01T00:48:06.609Z,1023.13
2019-04-01T00:49:06.642Z,1023.12
2019-04-01T00:50:06.689Z,1023.13
2019-04-01T00:51:06.807Z,1023.09
2019-04-01T00:52:06.420Z,1023.08
2019-04-01T00:53:06.399Z,1023.09
2019-04-01T00:54:09.864Z,1023.06
2019-04-01T00:55:06.383Z,1023.10
2019-04-01T00:56:06.399Z,1023.12
2019-04-01T00:57:06.701Z,1023.10
2019-04-01T00:58:06.355Z,1023.11
2019-04-01T00:59:06.341Z,1023.17
2019-04-01T01:00:06.330Z,1023.15
2019-04-01T01:01:06.321Z,1023.16
2019-04-01T01:02:08.104Z,1023.10
2019-04-01T01:03:06.307Z,1023.07
2019-04-01T01:04:06.285Z,1023.06
2019-04-01T01:05:07.349Z,1023.04
2019-04-01T01:06:06.259Z,1023.11
2019-04-01T01:07:06.308Z,1023.12
2019-04-01T01:08:06.621Z,1023.14
2019-04-01T01:09:06.238Z,1023.14
2019-04-01T01:10:06.221Z,1023.14
2019-04-01T01:11:06.312Z,1023.14
2019-04-01T01:12:06.197Z,1023.12
2019-04-01T01:13:06.286Z,1023.13
2019-04-01T01:14:06.757Z,1023.10
2019-04-01T01:15:06.158Z,1023.08
2019-04-01T01:16:06.158Z,1023.08
2019-04-01T01:17:06.149Z,1023.14
2019-04-01T01:18:06.693Z,1023.16
2019-04-01T01:19:06.329Z,1023.15
2019-04-01T01:20:06.115Z,1023.13
2019-04-01T01:21:06.092Z,1023.12
2019-04-01T01:22:06.097Z,1023.13
2019-04-01T01:23:06.082Z,1023.07
2019-04-01T01:24:06.064Z,1023.13
2019-04-01T01:25:06.247Z,1023.13
2019-04-01T01:26:06.107Z,1023.16
2019-04-01T01:27:06.030Z,1023.15
2019-04-01T01:28:06.115Z,1023.16
2019-04-01T01:29:06.350Z,1023.15
2019-04-01T01:30:06.017Z,1023.14
2019-04-01T01:31:06.100Z,1023.19
2019-04-01T01:32:06.109Z,1023.14
2019-04-01T01:33:05.966Z,1023.11
2019-04-01T01:34:05.950Z,1023.13
2019-04-01T01:35:05.944Z,1023.12
2019-04-01T01:36:06.074Z,1023.12
2019-04-01T01:37:05.927Z,1023.15
2019-04-01T01:38:11.316Z,1023.14
2019-04-01T01:39:05.981Z,1023.14
2019-04-01T01:40:05.911Z,1023.16
2019-04-01T01:41:06.183Z,1023.17
2019-04-01T01:42:08.293Z,1023.21
2019-04-01T01:43:05.860Z,1023.18
2019-04-01T01:44:06.206Z,1023.19
2019-04-01T01:45:05.919Z,1023.16
2019-04-01T01:46:05.844Z,1023.18
2019-04-01T01:47:05.815Z,1023.17
2019-04-01T01:48:05.824Z,1023.22
2019-04-01T01:49:05.787Z,1023.25
2019-04-01T01:50:10.832Z,1023.26
2019-04-01T01:51:05.773Z,1023.22
2019-04-01T01:52:05.855Z,1023.26
2019-04-01T01:53:05.745Z,1023.21
2019-04-01T01:54:05.761Z,1023.21
2019-04-01T01:55:05.729Z,1023.18
2019-04-01T01:56:06.040Z,1023.22
2019-04-01T01:57:05.707Z,1023.27
2019-04-01T01:58:05.754Z,1023.27
2019-04-01T01:59:05.683Z,1023.31
2019-04-01T02:00:05.791Z,1023.33
2019-04-01T02:01:05.821Z,1023.30
2019-04-01T02:02:05.643Z,1023.34
2019-04-01T02:03:05.636Z,1023.30
2019-04-01T02:04:05.641Z,1023.32
2019-04-01T02:05:05.683Z,1023.30
2019-04-01T02:06:06.142Z,1023.31
2019-04-01T02:07:05.760Z,1023.37
2019-04-01T02:08:05.580Z,1023.32
2019-04-01T02:09:05.588Z,1023.30
2019-04-01T02:10:05.569Z,1023.29
2019-04-01T02:11:09.072Z,1023.32
2019-04-01T02:12:05.538Z,1023.31
2019-04-01T02:13:05.662Z,1023.30
2019-04-01T02:14:05.517Z,1023.28
2019-04-01T02:15:05.506Z,1023.27
2019-04-01T02:16:05.499Z,1023.29
2019-04-01T02:17:05.588Z,1023.30
2019-04-01T02:18:05.467Z,1023.30
2019-04-01T02:19:05.766Z,1023.37
2019-04-01T02:20:06.264Z,1023.34
2019-04-01T02:21:05.445Z,1023.34
2019-04-01T02:22:05.456Z,1023.37
2019-04-01T02:23:05.423Z,1023.33
2019-04-01T02:24:05.589Z,1023.37
2019-04-01T02:25:13.379Z,1023.38
2019-04-01T02:26:05.378Z,1023.32
2019-04-01T02:27:05.385Z,1023.36
2019-04-01T02:28:05.969Z,1023.34
2019-04-01T02:29:05.360Z,1023.33
2019-04-01T02:30:05.976Z,1023.37
2019-04-01T02:31:05.330Z,1023.38
2019-04-01T02:32:08.217Z,1023.40
2019-04-01T02:33:05.316Z,1023.40
2019-04-01T02:34:05.660Z,1023.37
2019-04-01T02:35:05.304Z,1023.40
2019-04-01T02:36:18.051Z,1023.41
2019-04-01T02:37:05.284Z,1023.40
2019-04-01T02:38:05.258Z,1023.38
2019-04-01T02:39:06.044Z,1023.38
2019-04-01T02:40:05.687Z,1023.39
2019-04-01T02:41:05.361Z,1023.41
2019-04-01T02:42:05.680Z,1023.34
2019-04-01T02:43:05.215Z,1023.40
2019-04-01T02:44:05.478Z,1023.39
2019-04-01T02:45:05.178Z,1023.35
2019-04-01T02:46:05.171Z,1023.37
2019-04-01T02:47:05.540Z,1023.37
2019-04-01T02:48:05.149Z,1023.40
2019-04-01T02:49:05.158Z,1023.43
2019-04-01T02:50:05.142Z,1023.38
2019-04-01T02:51:05.229Z,1023.41
2019-04-01T02:52:05.116Z,1023.41
2019-04-01T02:53:10.580Z,1023.36
2019-04-01T02:54:05.902Z,1023.35
2019-04-01T02:55:06.902Z,1023.37
2019-04-01T02:56:05.112Z,1023.37
2019-04-01T02:57:05.056Z,1023.40
2019-04-01T02:58:05.128Z,1023.32
2019-04-01T02:59:05.644Z,1023.39
2019-04-01T03:00:05.025Z,1023.36
2019-04-01T03:01:05.014Z,1023.37
2019-04-01T03:02:04.994Z,1023.34
2019-04-01T03:03:04.999Z,1023.36
2019-04-01T03:04:04.973Z,1023.39
2019-04-01T03:05:05.153Z,1023.39
2019-04-01T03:06:05.063Z,1023.44
2019-04-01T03:07:05.291Z,1023.46
2019-04-01T03:08:05.275Z,1023.44
2019-04-01T03:09:04.926Z,1023.49
2019-04-01T03:10:05.209Z,1023.44
2019-04-01T03:11:09.627Z,1023.45
2019-04-01T03:12:06.098Z,1023.50
2019-04-01T03:13:04.882Z,1023.48
2019-04-01T03:14:04.870Z,1023.51
2019-04-01T03:15:04.880Z,1023.51
2019-04-01T03:16:04.855Z,1023.49
2019-04-01T03:17:04.843Z,1023.52
2019-04-01T03:18:05.442Z,1023.50
2019-04-01T03:19:05.238Z,1023.50
2019-04-01T03:20:04.807Z,1023.50
2019-04-01T03:21:05.001Z,1023.50
2019-04-01T03:22:04.781Z,1023.54
2019-04-01T03:23:04.944Z,1023.48
2019-04-01T03:24:05.740Z,1023.46
2019-04-01T03:25:05.276Z,1023.45
2019-04-01T03:26:04.760Z,1023.44
2019-04-01T03:27:04.822Z,1023.43
2019-04-01T03:28:05.053Z,1023.45
2019-04-01T03:29:05.124Z,1023.50
2019-04-01T03:30:05.054Z,1023.55
2019-04-01T03:31:05.321Z,1023.48
2019-04-01T03:32:06.585Z,1023.51
2019-04-01T03:33:04.672Z,1023.49
2019-04-01T03:34:04.654Z,1023.46
2019-04-01T03:35:04.642Z,1023.47
2019-04-01T03:36:04.634Z,1023.46
2019-04-01T03:37:05.025Z,1023.41
2019-04-01T03:38:04.844Z,1023.44
2019-04-01T03:39:05.023Z,1023.44
2019-04-01T03:40:04.850Z,1023.43
2019-04-01T03:41:04.615Z,1023.44
2019-04-01T03:42:06.024Z,1023.45
2019-04-01T03:43:04.610Z,1023.49
2019-04-01T03:44:25.843Z,1023.46
2019-04-01T03:45:04.949Z,1023.43
2019-04-01T03:46:04.584Z,1023.41
2019-04-01T03:47:04.604Z,1023.47
2019-04-01T03:48:05.203Z,1023.43
2019-04-01T03:49:04.681Z,1023.49
2019-04-01T03:50:05.215Z,1023.45
2019-04-01T03:51:04.673Z,1023.45
2019-04-01T03:52:04.603Z,1023.50
2019-04-01T03:53:04.462Z,1023.48
2019-04-01T03:54:04.432Z,1023.48
2019-04-01T03:55:04.437Z,1023.42
2019-04-01T03:56:04.884Z,1023.47
2019-04-01T03:57:05.077Z,1023.47
2019-04-01T03:58:04.393Z,1023.44
2019-04-01T03:59:04.410Z,1023.43
2019-04-01T04:00:04.394Z,1023.41
2019-04-01T04:01:05.318Z,1023.43
2019-04-01T04:02:04.349Z,1023.42
2019-04-01T04:03:04.375Z,1023.39
2019-04-01T04:04:04.345Z,1023.40
2019-04-01T04:05:04.316Z,1023.42
2019-04-01T04:06:04.316Z,1023.44
2019-04-01T04:07:05.334Z,1023.46
2019-04-01T04:08:08.573Z,1023.50
2019-04-01T04:09:06.014Z,1023.45
2019-04-01T04:10:04.490Z,1023.44
2019-04-01T04:11:06.043Z,1023.44
2019-04-01T04:12:04.593Z,1023.43
2019-04-01T04:13:04.239Z,1023.47
2019-04-01T04:14:04.303Z,1023.42
2019-04-01T04:15:04.435Z,1023.43
2019-04-01T04:16:04.284Z,1023.48
2019-04-01T04:17:04.192Z,1023.47
2019-04-01T04:18:04.821Z,1023.48
2019-04-01T04:19:04.188Z,1023.49
2019-04-01T04:20:04.184Z,1023.51
2019-04-01T04:21:04.161Z,1023.49
2019-04-01T04:22:04.147Z,1023.50
2019-04-01T04:23:04.320Z,1023.61
2019-04-01T04:24:04.393Z,1023.54
2019-04-01T04:25:04.173Z,1023.58
2019-04-01T04:26:04.110Z,1023.58
2019-04-01T04:27:04.294Z,1023.55
2019-04-01T04:28:04.068Z,1023.58
2019-04-01T04:29:04.105Z,1023.56
2019-04-01T04:30:06.021Z,1023.51
2019-04-01T04:31:04.312Z,1023.55
2019-04-01T04:32:04.043Z,1023.50
2019-04-01T04:33:04.464Z,1023.53
2019-04-01T04:34:04.006Z,1023.54
2019-04-01T04:35:04.007Z,1023.55
2019-04-01T04:36:04.006Z,1023.55
2019-04-01T04:37:03.992Z,1023.60
2019-04-01T04:38:04.163Z,1023.57
2019-04-01T04:39:03.951Z,1023.64
2019-04-01T04:40:04.000Z,1023.57
2019-04-01T04:41:03.929Z,1023.58
2019-04-01T04:42:03.945Z,1023.56
2019-04-01T04:43:03.917Z,1023.55
2019-04-01T04:44:04.063Z,1023.61
2019-04-01T04:45:03.898Z,1023.61
2019-04-01T04:46:04.084Z,1023.61
2019-04-01T04:47:08.768Z,1023.62
2019-04-01T04:48:03.885Z,1023.60
2019-04-01T04:49:03.857Z,1023.58
2019-04-01T04:50:03.885Z,1023.63
2019-04-01T04:51:08.802Z,1023.66
2019-04-01T04:52:04.718Z,1023.62
2019-04-01T04:53:03.803Z,1023.64
2019-04-01T04:54:03.804Z,1023.65
2019-04-01T04:55:03.805Z,1023.66
2019-04-01T04:56:04.392Z,1023.67
2019-04-01T04:57:03.766Z,1023.73
2019-04-01T04:58:03.753Z,1023.70
2019-04-01T04:59:03.743Z,1023.66
2019-04-01T05:00:12.252Z,1023.68
2019-04-01T05:01:03.722Z,1023.73
2019-04-01T05:02:03.717Z,1023.69
2019-04-01T05:03:03.766Z,1023.69
2019-04-01T05:04:03.707Z,1023.75
2019-04-01T05:05:04.137Z,1023.75
2019-04-01T05:06:03.683Z,1023.73
2019-04-01T05:07:03.704Z,1023.77
2019-04-01T05:08:03.721Z,1023.79
2019-04-01T05:09:03.638Z,1023.75
2019-04-01T05:10:03.625Z,1023.75
2019-04-01T05:11:03.823Z,1023.75
2019-04-01T05:12:03.602Z,1023.78
2019-04-01T05:13:03.596Z,1023.79
2019-04-01T05:14:03.808Z,1023.81
2019-04-01T05:15:04.024Z,1023.83
2019-04-01T05:16:04.001Z,1023.83
2019-04-01T05:17:03.814Z,1023.87
2019-04-01T05:18:03.583Z,1023.87
2019-04-01T05:19:03.761Z,1023.89
2019-04-01T05:20:03.634Z,1023.87
2019-04-01T05:21:03.498Z,1023.89
2019-04-01T05:22:03.508Z,1023.89
2019-04-01T05:23:03.484Z,1023.94
2019-04-01T05:24:03.474Z,1023.93
2019-04-01T05:25:03.636Z,1023.97
2019-04-01T05:26:03.463Z,1024.00
2019-04-01T05:27:03.436Z,1023.97
2019-04-01T05:28:03.434Z,1023.96
2019-04-01T05:29:03.617Z,1023.98
2019-04-01T05:30:03.787Z,1023.93
2019-04-01T05:31:03.400Z,1023.97
2019-04-01T05:32:03.379Z,1023.96
2019-04-01T05:33:03.593Z,1023.99
2019-04-01T05:34:03.637Z,1023.99
2019-04-01T05:35:04.583Z,1023.99
2019-04-01T05:36:03.720Z,1024.01
2019-04-01T05:37:03.859Z,1023.97
2019-04-01T05:38:03.318Z,1023.99
2019-04-01T05:39:05.067Z,1023.98
2019-04-01T05:40:03.316Z,1024.03
2019-04-01T05:41:03.595Z,1024.00
2019-04-01T05:42:03.675Z,1023.96
2019-04-01T05:43:03.304Z,1024.01
2019-04-01T05:44:03.347Z,1023.97
2019-04-01T05:45:03.977Z,1023.94
2019-04-01T05:46:03.819Z,1024.00
2019-04-01T05:47:03.220Z,1024.03
2019-04-01T05:48:03.592Z,1024.05
2019-04-01T05:49:03.222Z,1024.03
2019-04-01T05:50:03.276Z,1024.00
2019-04-01T05:51:03.216Z,1024.02
2019-04-01T05:52:03.515Z,1024.04
2019-04-01T05:53:03.158Z,1024.04
2019-04-01T05:54:03.725Z,1024.07
2019-04-01T05:55:03.514Z,1024.10
2019-04-01T05:56:03.205Z,1024.12
2019-04-01T05:57:03.119Z,1024.08
2019-04-01T05:58:03.113Z,1024.09
2019-04-01T05:59:04.393Z,1024.08
2019-04-01T06:00:03.078Z,1024.03
2019-04-01T06:01:03.121Z,1024.02
2019-04-01T06:02:03.063Z,1024.10
2019-04-01T06:03:03.052Z,1024.09
2019-04-01T06:04:03.063Z,1024.13
2019-04-01T06:05:03.198Z,1024.10
2019-04-01T06:06:03.030Z,1024.11
2019-04-01T06:07:04.025Z,1024.11
2019-04-01T06:08:03.039Z,1024.03
2019-04-01T06:09:03.145Z,1024.06
2019-04-01T06:10:04.462Z,1024.10
2019-04-01T06:11:03.261Z,1024.11
2019-04-01T06:12:02.970Z,1024.13
2019-04-01T06:13:02.975Z,1024.12
2019-04-01T06:14:02.932Z,1024.08
2019-04-01T06:15:02.922Z,1024.08
2019-04-01T06:16:02.988Z,1024.08
2019-04-01T06:17:04.252Z,1024.10
2019-04-01T06:18:03.070Z,1024.06
2019-04-01T06:19:05.841Z,1024.10
2019-04-01T06:20:03.480Z,1024.10
2019-04-01T06:21:03.333Z,1024.05
2019-04-01T06:22:02.949Z,1024.04
2019-04-01T06:23:02.956Z,1024.11
2019-04-01T06:24:02.907Z,1024.12
2019-04-01T06:25:03.398Z,1024.10
2019-04-01T06:26:02.915Z,1024.17
2019-04-01T06:27:03.175Z,1024.10
2019-04-01T06:28:05.243Z,1024.14
2019-04-01T06:29:02.936Z,1024.12
2019-04-01T06:30:02.744Z,1024.15
2019-04-01T06:31:02.764Z,1024.11
2019-04-01T06:32:03.794Z,1024.13
2019-04-01T06:33:03.792Z,1024.13
2019-04-01T06:34:02.988Z,1024.10
2019-04-01T06:35:03.295Z,1024.11
2019-04-01T06:36:03.311Z,1024.16
2019-04-01T06:37:02.683Z,1024.10
2019-04-01T06:38:02.746Z,1024.14
2019-04-01T06:39:04.017Z,1024.16
2019-04-01T06:40:02.662Z,1024.18
2019-04-01T06:41:02.776Z,1024.17
2019-04-01T06:42:02.626Z,1024.15
2019-04-01T06:43:02.992Z,1024.22
2019-04-01T06:44:02.858Z,1024.22
2019-04-01T06:45:03.139Z,1024.19
2019-04-01T06:46:02.596Z,1024.16
2019-04-01T06:47:02.592Z,1024.21
2019-04-01T06:48:03.093Z,1024.20
2019-04-01T06:49:02.592Z,1024.19
2019-04-01T06:50:04.570Z,1024.19
2019-04-01T06:51:02.691Z,1024.23
2019-04-01T06:52:02.774Z,1024.29
2019-04-01T06:53:02.598Z,1024.28
2019-04-01T06:54:02.691Z,1024.24
2019-04-01T06:55:03.554Z,1024.28
2019-04-01T06:56:02.741Z,1024.28
2019-04-01T06:57:02.601Z,1024.27
2019-04-01T06:58:02.614Z,1024.25
2019-04-01T06:59:02.568Z,1024.23
2019-04-01T07:00:02.694Z,1024.22
2019-04-01T07:01:02.425Z,1024.26
2019-04-01T07:02:03.128Z,1024.26
2019-04-01T07:03:02.435Z,1024.25
2019-04-01T07:04:02.380Z,1024.28
2019-04-01T07:05:02.370Z,1024.32
2019-04-01T07:06:02.369Z,1024.32
2019-04-01T07:07:02.797Z,1024.35
2019-04-01T07:08:02.329Z,1024.38
2019-04-01T07:09:03.168Z,1024.34
2019-04-01T07:10:02.306Z,1024.30
2019-04-01T07:11:02.301Z,1024.33
2019-04-01T07:12:02.686Z,1024.28
2019-04-01T07:13:03.079Z,1024.28
2019-04-01T07:14:02.272Z,1024.30
2019-04-01T07:15:02.869Z,1024.37
2019-04-01T07:16:14.789Z,1024.33
2019-04-01T07:17:03.235Z,1024.45
2019-04-01T07:18:02.241Z,1024.39
2019-04-01T07:19:02.218Z,1024.42
2019-04-01T07:20:02.397Z,1024.38
2019-04-01T07:21:02.183Z,1024.36
2019-04-01T07:22:02.180Z,1024.31
2019-04-01T07:23:02.176Z,1024.42
2019-04-01T07:24:02.169Z,1024.47
2019-04-01T07:25:02.342Z,1024.41
2019-04-01T07:26:02.318Z,1024.37
2019-04-01T07:27:02.121Z,1024.39
2019-04-01T07:28:02.113Z,1024.41
2019-04-01T07:29:02.580Z,1024.38
2019-04-01T07:30:02.111Z,1024.42
2019-04-01T07:31:02.084Z,1024.41
2019-04-01T07:32:02.346Z,1024.41
2019-04-01T07:33:02.057Z,1024.41
2019-04-01T07:34:02.070Z,1024.41
2019-04-01T07:35:02.047Z,1024.45
2019-04-01T07:36:02.113Z,1024.41
2019-04-01T07:37:02.055Z,1024.42
2019-04-01T07:38:02.400Z,1024.47
2019-04-01T07:39:02.237Z,1024.43
2019-04-01T07:40:01.983Z,1024.39
2019-04-01T07:41:02.197Z,1024.41
2019-04-01T07:42:01.966Z,1024.32
2019-04-01T07:43:01.949Z,1024.42
2019-04-01T07:44:02.225Z,1024.40
2019-04-01T07:45:04.990Z,1024.39
2019-04-01T07:46:01.928Z,1024.38
2019-04-01T07:47:02.345Z,1024.45
2019-04-01T07:48:01.899Z,1024.48
2019-04-01T07:49:02.006Z,1024.43
2019-04-01T07:50:02.061Z,1024.46
2019-04-01T07:51:01.869Z,1024.46
2019-04-01T07:52:02.182Z,1024.42
2019-04-01T07:53:01.863Z,1024.48
2019-04-01T07:54:01.830Z,1024.49
2019-04-01T07:55:01.812Z,1024.44
2019-04-01T07:56:02.718Z,1024.49
2019-04-01T07:57:02.093Z,1024.39
2019-04-01T07:58:04.157Z,1024.46
2019-04-01T07:59:01.765Z,1024.46
2019-04-01T08:00:01.772Z,1024.45
2019-04-01T08:01:02.730Z,1024.53
2019-04-01T08:02:01.737Z,1024.56
2019-04-01T08:03:01.732Z,1024.52
2019-04-01T08:04:02.611Z,1024.51
2019-04-01T08:05:02.965Z,1024.60
2019-04-01T08:06:01.851Z,1024.53
2019-04-01T08:07:01.705Z,1024.52
2019-04-01T08:08:01.815Z,1024.61
2019-04-01T08:09:01.671Z,1024.64
2019-04-01T08:10:01.969Z,1024.54
2019-04-01T08:11:01.680Z,1024.62
2019-04-01T08:12:01.635Z,1024.57
2019-04-01T08:13:05.661Z,1024.54
2019-04-01T08:14:01.804Z,1024.61
2019-04-01T08:15:01.759Z,1024.64
2019-04-01T08:16:01.620Z,1024.62
2019-04-01T08:17:01.604Z,1024.65
2019-04-01T08:18:02.452Z,1024.63
2019-04-01T08:19:01.564Z,1024.61
2019-04-01T08:20:01.734Z,1024.66
2019-04-01T08:21:01.799Z,1024.71
2019-04-01T08:22:01.703Z,1024.68
2019-04-01T08:23:01.554Z,1024.67
2019-04-01T08:24:01.592Z,1024.64
2019-04-01T08:25:01.894Z,1024.60
2019-04-01T08:26:03.704Z,1024.64
2019-04-01T08:27:01.659Z,1024.60
2019-04-01T08:28:01.458Z,1024.59
2019-04-01T08:29:01.458Z,1024.53
2019-04-01T08:30:01.746Z,1024.62
2019-04-01T08:31:01.421Z,1024.60
2019-04-01T08:32:01.573Z,1024.60
2019-04-01T08:33:01.822Z,1024.64
2019-04-01T08:34:01.399Z,1024.66
2019-04-01T08:35:01.385Z,1024.68
2019-04-01T08:36:01.402Z,1024.63
2019-04-01T08:37:01.361Z,1024.63
2019-04-01T08:38:01.553Z,1024.68
2019-04-01T08:39:03.825Z,1024.60
2019-04-01T08:40:01.391Z,1024.63
2019-04-01T08:41:01.334Z,1024.66
2019-04-01T08:42:01.335Z,1024.67
2019-04-01T08:43:01.303Z,1024.61
2019-04-01T08:44:03.273Z,1024.65
2019-04-01T08:45:01.648Z,1024.63
2019-04-01T08:46:02.365Z,1024.64
2019-04-01T08:47:03.417Z,1024.60
2019-04-01T08:48:01.271Z,1024.62
2019-04-01T08:49:01.248Z,1024.59
2019-04-01T08:50:01.359Z,1024.65
2019-04-01T08:51:01.437Z,1024.57
2019-04-01T08:52:01.227Z,1024.66
2019-04-01T08:53:01.212Z,1024.68
2019-04-01T08:54:01.193Z,1024.78
2019-04-01T08:55:01.627Z,1024.71
2019-04-01T08:56:02.818Z,1024.68
2019-04-01T08:57:01.686Z,1024.65
2019-04-01T08:58:01.148Z,1024.60
2019-04-01T08:59:01.402Z,1024.58
2019-04-01T09:00:01.785Z,1024.59
2019-04-01T09:01:02.195Z,1024.64
2019-04-01T09:02:01.186Z,1024.64
2019-04-01T09:03:01.081Z,1024.56
2019-04-01T09:04:01.063Z,1024.61
2019-04-01T09:05:01.521Z,1024.61
2019-04-01T09:06:01.447Z,1024.70
2019-04-01T09:07:09.304Z,1024.68
2019-04-01T09:08:01.026Z,1024.68
2019-04-01T09:09:01.028Z,1024.69
2019-04-01T09:10:01.036Z,1024.71
2019-04-01T09:11:01.027Z,1024.63
2019-04-01T09:12:01.559Z,1024.60
2019-04-01T09:13:00.967Z,1024.52
2019-04-01T09:14:00.987Z,1024.63
2019-04-01T09:15:01.170Z,1024.60
2019-04-01T09:16:00.946Z,1024.65
2019-04-01T09:17:00.938Z,1024.63
2019-04-01T09:18:01.523Z,1024.64
2019-04-01T09:19:01.297Z,1024.53
2019-04-01T09:20:00.899Z,1024.52
2019-04-01T09:21:00.891Z,1024.59
2019-04-01T09:22:01.199Z,1024.56
2019-04-01T09:23:00.872Z,1024.54
2019-04-01T09:24:00.934Z,1024.54
2019-04-01T09:25:01.164Z,1024.53
2019-04-01T09:26:00.849Z,1024.53
2019-04-01T09:27:00.872Z,1024.58
2019-04-01T09:28:00.813Z,1024.54
2019-04-01T09:29:00.883Z,1024.63
2019-04-01T09:30:01.116Z,1024.54
2019-04-01T09:31:00.993Z,1024.58
2019-04-01T09:32:00.780Z,1024.53
2019-04-01T09:33:00.759Z,1024.49
2019-04-01T09:34:00.786Z,1024.47
2019-04-01T09:35:00.744Z,1024.57
2019-04-01T09:36:01.067Z,1024.57
2019-04-01T09:37:00.983Z,1024.55
2019-04-01T09:38:01.215Z,1024.62
2019-04-01T09:39:00.700Z,1024.48
2019-04-01T09:40:00.699Z,1024.52
2019-04-01T09:41:00.680Z,1024.56
2019-04-01T09:42:00.848Z,1024.59
2019-04-01T09:43:00.781Z,1024.49
2019-04-01T09:44:00.768Z,1024.47
2019-04-01T09:45:00.933Z,1024.59
2019-04-01T09:46:00.844Z,1024.44
2019-04-01T09:47:00.616Z,1024.52
2019-04-01T09:48:00.690Z,1024.47
2019-04-01T09:49:00.879Z,1024.52
2019-04-01T09:50:01.373Z,1024.47
2019-04-01T09:51:00.625Z,1024.43
2019-04-01T09:52:03.719Z,1024.46
2019-04-01T09:53:00.606Z,1024.39
2019-04-01T09:54:00.616Z,1024.42
2019-04-01T09:55:00.835Z,1024.46
2019-04-01T09:56:00.584Z,1024.36
2019-04-01T09:57:00.706Z,1024.41
2019-04-01T09:58:00.799Z,1024.35
2019-04-01T09:59:00.569Z,1024.35
2019-04-01T10:00:12.139Z,1024.39
2019-04-01T10:01:02.643Z,1024.42
2019-04-01T10:02:00.467Z,1024.35
2019-04-01T10:03:01.073Z,1024.29
2019-04-01T10:04:00.519Z,1024.36
2019-04-01T10:05:00.455Z,1024.27
2019-04-01T10:06:01.215Z,1024.30
2019-04-01T10:07:00.405Z,1024.27
2019-04-01T10:08:00.425Z,1024.30
2019-04-01T10:09:00.428Z,1024.36
2019-04-01T10:10:00.382Z,1024.30
2019-04-01T10:11:01.343Z,1024.37
2019-04-01T10:12:01.105Z,1024.31
2019-04-01T10:13:05.188Z,1024.25
2019-04-01T10:14:00.335Z,1024.38
2019-04-01T10:15:00.358Z,1024.24
2019-04-01T10:16:00.346Z,1024.29
2019-04-01T10:17:00.805Z,1024.24
2019-04-01T10:18:00.405Z,1024.21
2019-04-01T10:19:00.844Z,1024.29
2019-04-01T10:20:01.102Z,1024.23
2019-04-01T10:21:00.275Z,1024.20
2019-04-01T10:22:00.278Z,1024.26
2019-04-01T10:23:00.406Z,1024.21
2019-04-01T10:24:01.659Z,1024.25
2019-04-01T10:25:00.419Z,1024.23
2019-04-01T10:26:00.214Z,1024.18
2019-04-01T10:27:00.306Z,1024.19
2019-04-01T10:28:00.211Z,1024.19
2019-04-01T10:29:02.839Z,1024.23
2019-04-01T10:30:00.394Z,1024.13
2019-04-01T10:31:00.153Z,1024.17
2019-04-01T10:32:00.150Z,1024.11
2019-04-01T10:33:02.207Z,1024.15
2019-04-01T10:34:00.142Z,1024.10
2019-04-01T10:35:01.201Z,1024.16
2019-04-01T10:36:00.104Z,1024.12
2019-04-01T10:37:00.304Z,1024.11
2019-04-01T10:38:00.799Z,1024.09
2019-04-01T10:39:00.076Z,1024.13
2019-04-01T10:40:00.751Z,1024.13
2019-04-01T10:41:00.570Z,1024.14
2019-04-01T10:42:00.980Z,1024.02
2019-04-01T10:43:00.086Z,1024.03
2019-04-01T10:44:00.031Z,1023.99
2019-04-01T10:45:01.862Z,1024.02
2019-04-01T10:46:00.018Z,1024.06
2019-04-01T10:47:00.260Z,1024.06
2019-04-01T10:48:00.038Z,1024.05
2019-04-01T10:48:59.975Z,1024.07
2019-04-01T10:50:00.464Z,1024.06
2019-04-01T10:50:59.959Z,1024.11
2019-04-01T10:52:00.055Z,1024.02
2019-04-01T10:52:59.929Z,1023.98
2019-04-01T10:53:59.955Z,1023.90
2019-04-01T10:54:59.928Z,1023.92
2019-04-01T10:56:00.590Z,1024.00
2019-04-01T10:56:59.924Z,1023.90
2019-04-01T10:57:59.895Z,1023.99
2019-04-01T10:58:59.876Z,1024.01
2019-04-01T10:59:59.859Z,1023.95
2019-04-01T11:01:00.246Z,1023.96
2019-04-01T11:01:59.850Z,1023.97
2019-04-01T11:02:59.848Z,1023.88
2019-04-01T11:03:59.896Z,1023.91
2019-04-01T11:04:59.855Z,1023.90
2019-04-01T11:06:02.259Z,1023.87
2019-04-01T11:07:00.222Z,1023.87
2019-04-01T11:08:00.307Z,1023.82
2019-04-01T11:09:00.340Z,1023.87
2019-04-01T11:09:59.755Z,1023.87
2019-04-01T11:11:00.212Z,1023.85
2019-04-01T11:12:01.110Z,1023.82
2019-04-01T11:12:59.857Z,1023.72
2019-04-01T11:13:59.932Z,1023.78
2019-04-01T11:14:59.743Z,1023.79
2019-04-01T11:15:59.700Z,1023.79
2019-04-01T11:16:59.698Z,1023.81
2019-04-01T11:17:59.688Z,1023.74
2019-04-01T11:19:00.602Z,1023.79
2019-04-01T11:19:59.669Z,1023.75
2019-04-01T11:20:59.656Z,1023.72
2019-04-01T11:21:59.648Z,1023.72
2019-04-01T11:23:02.596Z,1023.74
2019-04-01T11:23:59.661Z,1023.71
2019-04-01T11:24:59.845Z,1023.71
2019-04-01T11:26:00.830Z,1023.74
2019-04-01T11:26:59.704Z,1023.69
2019-04-01T11:28:00.593Z,1023.64
2019-04-01T11:28:59.583Z,1023.68
2019-04-01T11:29:59.557Z,1023.67
2019-04-01T11:30:59.862Z,1023.77
2019-04-01T11:32:00.068Z,1023.57
2019-04-01T11:32:59.644Z,1023.66
2019-04-01T11:33:59.519Z,1023.60
2019-04-01T11:34:59.534Z,1023.56
2019-04-01T11:35:59.501Z,1023.55
2019-04-01T11:36:59.531Z,1023.53
2019-04-01T11:38:02.074Z,1023.48
2019-04-01T11:38:59.479Z,1023.42
2019-04-01T11:39:59.753Z,1023.40
2019-04-01T11:41:02.543Z,1023.42
2019-04-01T11:42:01.553Z,1023.39
2019-04-01T11:43:04.773Z,1023.39
2019-04-01T11:43:59.516Z,1023.35
2019-04-01T11:44:59.440Z,1023.31
2019-04-01T11:45:59.423Z,1023.43
2019-04-01T11:46:59.405Z,1023.43
2019-04-01T11:47:59.750Z,1023.40
2019-04-01T11:48:59.389Z,1023.40
2019-04-01T11:49:59.391Z,1023.27
2019-04-01T11:50:59.401Z,1023.35
2019-04-01T11:51:59.407Z,1023.31
2019-04-01T11:53:00.169Z,1023.27
2019-04-01T11:53:59.684Z,1023.36
2019-04-01T11:54:59.316Z,1023.28
2019-04-01T11:55:59.345Z,1023.30
2019-04-01T11:56:59.294Z,1023.30
2019-04-01T11:57:59.361Z,1023.28
2019-04-01T11:58:59.472Z,1023.32
2019-04-01T11:59:59.381Z,1023.25
2019-04-01T12:01:00.043Z,1023.21
2019-04-01T12:01:59.282Z,1023.17
2019-04-01T12:02:59.245Z,1023.16
2019-04-01T12:03:59.261Z,1023.14
2019-04-01T12:04:59.397Z,1023.16